createdAt,value
2023-03-29T00:01:05.053Z,30
2023-03-29T00:16:04.875Z,34
2023-03-29T00:31:05.254Z,32
2023-03-29T00:46:05.462Z,23
2023-03-29T01:01:05.307Z,27
2023-03-29T01:16:05.847Z,28
2023-03-29T01:31:05.240Z,37
2023-03-29T01:46:05.379Z,39
2023-03-29T02:01:05.835Z,41
2023-03-29T02:16:04.997Z,41
2023-03-29T02:31:05.680Z,48
2023-03-29T02:46:04.724Z,47
2023-03-29T03:01:05.423Z,52
2023-03-29T03:16:05.184Z,55
2023-03-29T03:31:05.270Z,49
2023-03-29T03:46:05.212Z,55
2023-03-29T04:01:04.889Z,67
2023-03-29T04:16:05.219Z,68
2023-03-29T04:31:05.781Z,59
2023-03-29T04:46:05.519Z,71
2023-03-29T05:01:05.363Z,61
2023-03-29T05:16:05.622Z,51
2023-03-29T05:31:06.053Z,87
2023-03-29T05:46:04.816Z,50
2023-03-29T06:01:05.494Z,68
2023-03-29T06:16:05.721Z,65
2023-03-29T06:31:05.914Z,51
2023-03-29T06:46:05.795Z,54
2023-03-29T07:01:06.136Z,51
2023-03-29T07:16:05.549Z,28
2023-03-29T07:31:05.308Z,30
2023-03-29T07:46:05.715Z,19
2023-03-29T08:01:06.612Z,16
2023-03-29T08:16:04.754Z,18
2023-03-29T08:31:05.714Z,14
2023-03-29T08:46:04.884Z,14
2023-03-29T09:01:05.688Z,13
2023-03-29T09:16:05.332Z,9
2023-03-29T09:31:05.695Z,10
2023-03-29T09:46:06.033Z,9
2023-03-29T10:01:05.917Z,13
2023-03-29T10:16:05.084Z,10
2023-03-29T10:31:06.305Z,8
2023-03-29T10:46:05.704Z,9
2023-03-29T11:01:06.295Z,8
2023-03-29T11:16:05.551Z,13
2023-03-29T11:31:06.618Z,8
2023-03-29T11:46:05.198Z,8
2023-03-29T12:01:04.757Z,9
2023-03-29T12:16:05.031Z,11
2023-03-29T12:31:05.805Z,7
2023-03-29T12:46:06.487Z,11
2023-03-29T13:01:06.436Z,8
2023-03-29T13:16:06.505Z,11
2023-03-29T13:31:05.514Z,10
2023-03-29T13:46:06.141Z,10
2023-03-29T14:01:05.391Z,8
2023-03-29T14:16:06.232Z,10
2023-03-29T14:31:05.457Z,11
2023-03-29T14:46:06.411Z,12
2023-03-29T15:01:05.850Z,13
2023-03-29T15:16:08.766Z,17
2023-03-29T15:31:08.598Z,20
2023-03-29T15:46:05.715Z,16
2023-03-29T16:01:05.375Z,21
2023-03-29T16:16:05.672Z,21
2023-03-29T16:31:05.156Z,12
2023-03-29T16:46:06.424Z,22
2023-03-29T17:01:05.534Z,38
2023-03-29T17:16:06.267Z,26
2023-03-29T17:31:05.875Z,24
2023-03-29T17:46:05.664Z,31
2023-03-29T18:01:04.859Z,49
2023-03-29T18:16:05.805Z,40
2023-03-29T18:31:04.876Z,54
2023-03-29T18:46:06.325Z,47
2023-03-29T19:01:04.867Z,32
2023-03-29T19:16:06.367Z,28
2023-03-29T19:31:05.883Z,41
2023-03-29T19:46:05.735Z,53
2023-03-29T20:01:05.674Z,31
2023-03-29T20:16:04.989Z,34
2023-03-29T20:31:06.074Z,35
2023-03-29T20:46:05.777Z,26
2023-03-29T21:01:05.366Z,29
2023-03-29T21:16:05.667Z,31
2023-03-29T21:31:06.541Z,36
2023-03-29T21:46:05.895Z,30
2023-03-29T22:01:05.768Z,29
2023-03-29T22:16:05.953Z,32
2023-03-29T22:31:06.020Z,24
2023-03-29T22:46:05.539Z,21
2023-03-29T23:01:05.857Z,19
2023-03-29T23:16:05.924Z,19
2023-03-29T23:31:06.274Z,18
2023-03-29T23:46:04.966Z,15
